Архив погоды в Ахты

Метеограмма Ахты
Понедельник, 10 Декабря
Время местн. Темп Ветер Видим Явления Облачность нижн/средн/верх Атм. давл. Влжн Точка росы ВНГО R Сост. почвы Tg s
Напр Скр Прв ур.ст ур.м изм
12:00 +8.1° В 2 - 50 км - ясно 672 632 -2.1 59% +0.5° более 2.5 км - - - -
09:00 +7° З,С-З 5 - 50 км небо без изменений {туман} ясно 674 634 -0.3 28% -10.3° более 2.5 км - - - -
06:00 -2.4° В 1 - 10 км - ясно 674 633 -1 92% -3.5° более 2.5 км - Замерзшая - -
03:00 -2.9° З 1 - 10 км - ясно 675 634 -0.8 97% -3.3° более 2.5 км - - - -
00:00 -0.2° З 1 - 10 км - облачно 676 635 -0.6 94% -1° 600 м - - - -
Воскресенье, 9 Декабря
Время местн. Темп Ветер Видим Явления Облачность нижн/средн/верх Атм. давл. Влжн Точка росы ВНГО R Сост. почвы Tg s
Напр Скр Прв ур.ст ур.м изм
21:00 +0.4° В 1 - 10 км - облачно 677 636 -0.2 95% -0.3° 600 м - - - -
18:00 +0.4° В 1 - 10 км - облачно 677 636 +0.5 93% -0.6° 1 км - - - -
15:00 +1.6° В 2 - 10 км - облачно 676 636 -0.2 84% -0.8° 1 км - - - -
12:00 +1.4° В 2 - 10 км - облачно 677 635 -0.5 88% -0.4° 1 км - - - -
09:00 В 1 - 10 км - облачно 677 636 +0.6 98% -0.3° 1 км - - - -
06:00 -0.3° В 2 - 10 км - облачно 676 635 0 98% -0.6° 600 м - Влажная (без луж) - -
03:00 В 2 - 10 км - облачно 676 635 -0.5 98% -0.3° 600 м - - - -
00:00 +0.1° В 2 - 10 км - облачно 677 636 +1.1 97% -0.3° 600 м - - - -
Суббота, 8 Декабря
Время местн. Темп Ветер Видим Явления Облачность нижн/средн/верх Атм. давл. Влжн Точка росы ВНГО R Сост. почвы Tg s
Напр Скр Прв ур.ст ур.м изм
21:00 +0.8° В 2 - 10 км - облачно 676 633 +0.2 96% +0.3° 1 км - - - -
18:00 +1.5° В 4 - 10 км - облачно 676 633 +1.2 94% +0.7° 1 км - - - -
15:00 +3.2° В 4 - 10 км - облачно 674 634 +0.5 89% +1.5° 1 км - - - -
12:00 +3.2° В 4 - 10 км - облачно 674 634 -0.1 97% +2.7° 1 км - - - -
09:00 +2.3° В 3 - 10 км туман облачно 674 632 +1 97% +1.9° 600 м - - - -
06:00 +2.4° В 2 - 50 км туман неба не видно 673 632 +0.3 97% +2° - - Влажная (без луж) - -
03:00 +3.6° В 2 - 50 км туман усиливается неба не видно 673 632 -0.2 96% +3° - - - - -
00:00 +3.9° штиль 0 - 10 км - облачно 673 632 -0.1 95% +3.1° 600 м - - - -
Пятница, 7 Декабря
Время местн. Темп Ветер Видим Явления Облачность нижн/средн/верх Атм. давл. Влжн Точка росы ВНГО R Сост. почвы Tg s
Напр Скр Прв ур.ст ур.м изм
21:00 +4.5° штиль 0 - 10 км - облачно 673 633 +0.2 92% +3.3° 1 км - - - -
18:00 +4.6° В,С-В 1 - 10 км - облачно 673 633 +1 92% +3.4° 1 км - - - -
15:00 +7.6° В 3 - 50 км - переменная облачность 672 632 -0.2 73% +3.1° более 2.5 км - - - -
12:00 +7.8° В 3 - 20 км - облачно с прояснениями 672 632 -1.1 77% +4° 1 км - - - -
09:00 +4.9° штиль 0 - 10 км - облачно 673 633 -0.5 95% +4.1° 1 км - - - -